^^
Station Historical Data
Daily Summary for May 10, 2019 Units:  English    Metric   Both
« Previous Day
Next Day »
Daily Weekly Monthly Yearly Custom
  High: Low: Average:
Temperature: 64.4 °F 36 °F 50.2 °F
Dew Point: 38.8 °F 17.1 °F 29.9 °F
Humidity: 71% 31% 47%
Wind Speed: 26mph 0mph 10mph
Wind Gust: 30mph - -
Wind- - SSE
Pressure: 30.08 in 29.67 in -
Precipitation: 0 in    
Historical Graphs
 
 
Tabular Data for May 10, 2019
Time Temperature Dew Point Pressure Wind Wind Speed Wind Gust Humidity Rainfall Rate (Hourly) solar Conditions
00:04 40.3 °F 17.3 °F 30.08 in ENE 5 mph 5 mph 39% 0 in 0.00 W/m2
00:09 40.1 °F 17.1 °F 30.08 in ENE 4 mph 5 mph 39% 0 in 0.00 W/m2
00:14 40.1 °F 17.1 °F 30.08 in ENE 4 mph 5 mph 39% 0 in 0.00 W/m2
00:19 40.8 °F 17.1 °F 30.08 in ENE 4 mph 5 mph 38% 0 in 0.00 W/m2
00:24 41.5 °F 17.1 °F 30.08 in ENE 4 mph 5 mph 37% 0 in 0.00 W/m2
00:29 41.7 °F 17.3 °F 30.08 in East 3 mph 5 mph 37% 0 in 0.00 W/m2
00:34 41.1 °F 19.2 °F 30.08 in East 3 mph 5 mph 41% 0 in 0.00 W/m2
00:39 40.4 °F 18.5 °F 30.08 in East 4 mph 6 mph 41% 0 in 0.00 W/m2
00:44 40.2 °F 18.3 °F 30.08 in East 5 mph 6 mph 41% 0 in 0.00 W/m2
00:49 40.1 °F 21 °F 30.08 in East 3 mph 6 mph 46% 0 in 0.00 W/m2
00:54 39.9 °F 19.2 °F 30.08 in East 4 mph 6 mph 43% 0 in 0.00 W/m2
00:59 39.8 °F 19.6 °F 30.08 in ESE 2 mph 6 mph 44% 0 in 0.00 W/m2
01:04 39.7 °F 19.5 °F 30.08 in ESE 4 mph 6 mph 44% 0 in 0.00 W/m2
01:09 39.7 °F 20.1 °F 30.08 in ESE 4 mph 6 mph 45% 0 in 0.00 W/m2
01:14 39.6 °F 20.5 °F 30.08 in ESE 3 mph 6 mph 46% 0 in 0.00 W/m2
01:19 39.7 °F 20.6 °F 30.07 in ESE 3 mph 6 mph 46% 0 in 0.00 W/m2
01:24 39.8 °F 20.2 °F 30.08 in ESE 2 mph 4 mph 45% 0 in 0.00 W/m2
01:29 40 °F 20.9 °F 30.08 in ESE 3 mph 4 mph 46% 0 in 0.00 W/m2
01:34 39.9 °F 20.8 °F 30.08 in ESE 3 mph 4 mph 46% 0 in 0.00 W/m2
01:39 39.8 °F 20.7 °F 30.08 in ESE 3 mph 4 mph 46% 0 in 0.00 W/m2
01:44 39.8 °F 20.7 °F 30.08 in ESE 4 mph 4 mph 46% 0 in 0.00 W/m2
01:49 39.7 °F 20.6 °F 30.08 in ESE 2 mph 4 mph 46% 0 in 0.00 W/m2
01:54 39.5 °F 21.9 °F 30.08 in WSW 3 mph 4 mph 49% 0 in 0.00 W/m2
01:59 39.2 °F 20.6 °F 30.08 in NE 4 mph 5 mph 47% 0 in 0.00 W/m2
02:04 39.4 °F 21.3 °F 30.08 in ESE 3 mph 6 mph 48% 0 in 0.00 W/m2
02:09 39.5 °F 21.9 °F 30.08 in East 4 mph 6 mph 49% 0 in 0.00 W/m2
02:14 39.6 °F 20.5 °F 30.07 in ENE 7 mph 9 mph 46% 0 in 0.00 W/m2
02:19 40.2 °F 19.5 °F 30.07 in ENE 3 mph 10 mph 43% 0 in 0.00 W/m2
02:24 40.4 °F 21.2 °F 30.07 in ENE 1 mph 10 mph 46% 0 in 0.00 W/m2
02:29 40.1 °F 22.4 °F 30.07 in East 1 mph 8 mph 49% 0 in 0.00 W/m2
02:34 39.5 °F 21.9 °F 30.07 in ESE 4 mph 8 mph 49% 0 in 0.00 W/m2
02:39 39.2 °F 21.6 °F 30.07 in ENE 5 mph 8 mph 49% 0 in 0.00 W/m2
02:44 38.9 °F 21.3 °F 30.07 in East 4 mph 7 mph 49% 0 in 0.00 W/m2
02:49 39 °F 21.4 °F 30.07 in East 4 mph 7 mph 49% 0 in 0.00 W/m2
02:54 39.2 °F 22.1 °F 30.07 in SSE 3 mph 7 mph 50% 0 in 0.00 W/m2
02:59 38.6 °F 22 °F 30.07 in SSE 4 mph 5 mph 51% 0 in 0.00 W/m2
03:04 38 °F 21.9 °F 30.07 in SSE 3 mph 6 mph 52% 0 in 0.00 W/m2
03:09 37.6 °F 22.4 °F 30.07 in Calm   6 mph 54% 0 in 0.00 W/m2
03:14 37.3 °F 22.2 °F 30.07 in NNE 2 mph 6 mph 54% 0 in 0.00 W/m2
03:19 37.1 °F 22.4 °F 30.07 in NNE 1 mph 6 mph 55% 0 in 0.00 W/m2
03:24 36.9 °F 22.2 °F 30.07 in ESE 2 mph 4 mph 55% 0 in 0.00 W/m2
03:29 36.5 °F 22.7 °F 30.07 in WSW 3 mph 4 mph 57% 0 in 0.00 W/m2
03:34 36 °F 22.2 °F 30.07 in Calm   4 mph 57% 0 in 0.00 W/m2
03:39 36.3 °F 22.1 °F 30.07 in Calm   4 mph 56% 0 in 0.00 W/m2
03:44 36.7 °F 22 °F 30.07 in WSW 2 mph 4 mph 55% 0 in 0.00 W/m2
03:49 37.3 °F 21.7 °F 30.07 in WSW 1 mph 2 mph 53% 0 in 0.00 W/m2
03:54 37.7 °F 22.5 °F 30.06 in SSE 2 mph 4 mph 54% 0 in 0.00 W/m2
03:59 37.9 °F 22.7 °F 30.07 in ESE 4 mph 6 mph 54% 0 in 0.00 W/m2
04:04 38.4 °F 22.7 °F 30.06 in ESE 3 mph 6 mph 53% 0 in 0.00 W/m2
04:09 38.5 °F 22.8 °F 30.06 in ESE 4 mph 6 mph 53% 0 in 0.00 W/m2
04:14 38.6 °F 22.9 °F 30.06 in ESE 4 mph 6 mph 53% 0 in 0.00 W/m2
04:19 38.3 °F 23.1 °F 30.06 in ESE 3 mph 6 mph 54% 0 in 0.00 W/m2
04:24 37.9 °F 22.7 °F 30.05 in East 6 mph 6 mph 54% 0 in 0.00 W/m2
04:29 37.5 °F 22.8 °F 30.05 in East 7 mph 8 mph 55% 0 in 0.00 W/m2
04:34 37.1 °F 22.8 °F 30.05 in East 6 mph 8 mph 56% 0 in 0.00 W/m2
04:39 36.8 °F 23.4 °F 30.05 in ESE 4 mph 8 mph 58% 0 in 0.00 W/m2
04:44 37 °F 23.6 °F 30.05 in ESE 4 mph 8 mph 58% 0 in 0.00 W/m2
04:49 36.7 °F 23.7 °F 30.05 in SE 4 mph 8 mph 59% 0 in 0.00 W/m2
04:54 36.4 °F 23.8 °F 30.04 in SE 5 mph 8 mph 60% 0 in 0.00 W/m2
04:59 36.3 °F 24.1 °F 30.05 in SE 5 mph 8 mph 61% 0 in 0.00 W/m2
05:04 36.6 °F 24.4 °F 30.04 in ESE 8 mph 8 mph 61% 0 in 0.00 W/m2
05:09 36.8 °F 24.6 °F 30.04 in SE 7 mph 8 mph 61% 0 in 0.00 W/m2
05:14 36.8 °F 25 °F 30.04 in SE 3 mph 8 mph 62% 0 in 0.00 W/m2
05:19 36.7 °F 24.9 °F 30.04 in SE 5 mph 8 mph 62% 0 in 0.00 W/m2
05:24 36.8 °F 25 °F 30.04 in SE 4 mph 8 mph 62% 0 in 0.00 W/m2
05:29 37 °F 25.2 °F 30.03 in ESE 6 mph 8 mph 62% 0 in 0.00 W/m2
05:34 36.9 °F 25.1 °F 30.03 in ESE 7 mph 8 mph 62% 0 in 0.00 W/m2
05:39 36.8 °F 25 °F 30.03 in ESE 4 mph 8 mph 62% 0 in 0.00 W/m2
05:44 36.6 °F 25.2 °F 30.03 in ESE 6 mph 7 mph 63% 0 in 0.00 W/m2
05:49 36.6 °F 25.2 °F 30.03 in ESE 7 mph 8 mph 63% 0 in 0.00 W/m2
05:54 36.6 °F 25.6 °F 30.03 in ESE 6 mph 8 mph 64% 0 in 0.00 W/m2
05:59 36.7 °F 25.3 °F 30.02 in ESE 7 mph 8 mph 63% 0 in 0.00 W/m2
06:04 36.7 °F 25.3 °F 30.02 in SE 5 mph 8 mph 63% 0 in 0.00 W/m2
06:09 36.5 °F 25.5 °F 30.02 in ESE 6 mph 8 mph 64% 0 in 0.00 W/m2
06:14 36.5 °F 25.8 °F 30.02 in ESE 4 mph 8 mph 65% 0 in 0.00 W/m2
06:19 36.5 °F 25.8 °F 30.02 in ESE 7 mph 8 mph 65% 0 in 7.00 W/m2
06:24 36.5 °F 25.8 °F 30.02 in ESE 4 mph 8 mph 65% 0 in 9.00 W/m2
06:29 36.6 °F 26.3 °F 30.02 in ESE 4 mph 8 mph 66% 0 in 11.00 W/m2
06:34 36.5 °F 26.2 °F 30.02 in ESE 6 mph 8 mph 66% 0 in 12.00 W/m2
06:39 36.6 °F 26.3 °F 30.02 in SE 7 mph 8 mph 66% 0 in 12.00 W/m2
06:44 36.6 °F 26.3 °F 30.02 in SE 5 mph 8 mph 66% 0 in 12.00 W/m2
06:49 36.8 °F 26.5 °F 30.02 in ESE 7 mph 8 mph 66% 0 in 16.00 W/m2
06:54 36.9 °F 26.2 °F 30.01 in ESE 6 mph 9 mph 65% 0 in 19.00 W/m2
06:59 37 °F 25.9 °F 30.01 in ESE 4 mph 9 mph 64% 0 in 23.00 W/m2
07:04 37.1 °F 26.4 °F 30.01 in ESE 7 mph 9 mph 65% 0 in 26.00 W/m2
07:09 37.1 °F 26.4 °F 30.01 in SE 4 mph 9 mph 65% 0 in 37.00 W/m2
07:14 37.2 °F 26.9 °F 30.01 in ESE 8 mph 10 mph 66% 0 in 37.00 W/m2
07:19 37.4 °F 27.1 °F 30.01 in SE 10 mph 10 mph 66% 0 in 30.00 W/m2
07:24 37.5 °F 27.2 °F 30.01 in ESE 9 mph 11 mph 66% 0 in 37.00 W/m2
07:29 37.6 °F 27.3 °F 30.00 in ESE 9 mph 12 mph 66% 0 in 60.00 W/m2
07:34 37.7 °F 27.4 °F 30.00 in SE 10 mph 12 mph 66% 0 in 65.00 W/m2
07:39 37.8 °F 27.5 °F 30.01 in ESE 9 mph 12 mph 66% 0 in 79.00 W/m2
07:44 37.9 °F 27.9 °F 30.01 in ESE 8 mph 12 mph 67% 0 in 86.00 W/m2
07:49 38.1 °F 28.1 °F 30.00 in ESE 9 mph 12 mph 67% 0 in 88.00 W/m2
07:54 38.3 °F 28.7 °F 30.00 in ESE 7 mph 12 mph 68% 0 in 90.00 W/m2
07:59 38.3 °F 28.7 °F 30.00 in SE 11 mph 13 mph 68% 0 in 76.00 W/m2
08:04 38.4 °F 29.1 °F 30.00 in SE 9 mph 13 mph 69% 0 in 67.00 W/m2
08:09 38.6 °F 29.3 °F 30.00 in ESE 8 mph 13 mph 69% 0 in 67.00 W/m2
08:14 38.7 °F 29.8 °F 30.00 in SSE 6 mph 13 mph 70% 0 in 67.00 W/m2
08:19 38.9 °F 29.9 °F 30.00 in SE 9 mph 13 mph 70% 0 in 65.00 W/m2
08:24 39.1 °F 30.1 °F 30.00 in SE 9 mph 12 mph 70% 0 in 69.00 W/m2
08:29 39.2 °F 30.6 °F 29.99 in ESE 11 mph 12 mph 71% 0 in 76.00 W/m2
08:34 39.3 °F 30.7 °F 29.99 in SE 10 mph 12 mph 71% 0 in 77.00 W/m2
08:39 39.5 °F 30.9 °F 29.99 in ESE 9 mph 12 mph 71% 0 in 83.00 W/m2
08:44 39.8 °F 30.8 °F 29.99 in ESE 7 mph 12 mph 70% 0 in 88.00 W/m2
08:49 40.2 °F 30.8 °F 29.99 in SE 9 mph 13 mph 69% 0 in 128.00 W/m2
08:54 40.6 °F 31.2 °F 29.99 in SE 9 mph 15 mph 69% 0 in 135.00 W/m2
08:59 41.1 °F 31 °F 29.98 in SE 13 mph 15 mph 67% 0 in 156.00 W/m2
09:04 41.4 °F 30.9 °F 29.98 in SE 10 mph 15 mph 66% 0 in 179.00 W/m2
09:09 41.9 °F 31.4 °F 29.98 in SE 14 mph 15 mph 66% 0 in 185.00 W/m2
09:14 42.3 °F 31.4 °F 29.98 in SE 14 mph 15 mph 65% 0 in 207.00 W/m2
09:19 42.7 °F 31 °F 29.97 in SSE 12 mph 16 mph 63% 0 in 232.00 W/m2
09:24 43.2 °F 31.1 °F 29.97 in SE 13 mph 17 mph 62% 0 in 186.00 W/m2
09:29 43.4 °F 31.2 °F 29.97 in SSE 13 mph 17 mph 62% 0 in 190.00 W/m2
09:34 43.6 °F 31.4 °F 29.97 in SSE 8 mph 18 mph 62% 0 in 197.00 W/m2
09:39 44 °F 31.8 °F 29.97 in SE 8 mph 18 mph 62% 0 in 181.00 W/m2
09:44 44.4 °F 31.4 °F 29.97 in South 7 mph 16 mph 60% 0 in 200.00 W/m2
09:49 45.2 °F 30.9 °F 29.97 in South 11 mph 16 mph 57% 0 in 214.00 W/m2
09:54 45.7 °F 30.4 °F 29.97 in South 11 mph 15 mph 55% 0 in 236.00 W/m2
09:59 46.1 °F 30.8 °F 29.96 in South 13 mph 21 mph 55% 0 in 251.00 W/m2
10:04 46.6 °F 30.8 °F 29.96 in South 14 mph 22 mph 54% 0 in 244.00 W/m2
10:09 47 °F 30.7 °F 29.96 in South 13 mph 22 mph 53% 0 in 278.00 W/m2
10:14 47.3 °F 30.5 °F 29.95 in South 14 mph 24 mph 52% 0 in 285.00 W/m2
10:19 47.6 °F 30.8 °F 29.95 in SSW 9 mph 24 mph 52% 0 in 362.00 W/m2
10:24 48.5 °F 32.6 °F 29.95 in South 16 mph 20 mph 54% 0 in 708.00 W/m2
10:29 49.4 °F 33 °F 29.95 in SSE 13 mph 20 mph 53% 0 in 643.00 W/m2
10:34 50.1 °F 33.1 °F 29.95 in SSE 19 mph 20 mph 52% 0 in 598.00 W/m2
10:39 50.3 °F 33.8 °F 29.95 in South 14 mph 20 mph 53% 0 in 580.00 W/m2
10:44 50.5 °F 33 °F 29.94 in SSW 13 mph 21 mph 51% 0 in 666.00 W/m2
10:49 50.8 °F 33.3 °F 29.94 in SSW 9 mph 21 mph 51% 0 in 420.00 W/m2
10:54 50.8 °F 33.8 °F 29.94 in SSW 10 mph 21 mph 52% 0 in 367.00 W/m2
10:59 50.7 °F 33.7 °F 29.94 in SSW 12 mph 21 mph 52% 0 in 432.00 W/m2
11:04 51.5 °F 35.9 °F 29.94 in SSW 8 mph 21 mph 55% 0 in 867.00 W/m2
11:09 52.8 °F 34.7 °F 29.94 in SW 11 mph 20 mph 50% 0 in 731.00 W/m2
11:14 53.3 °F 35.6 °F 29.94 in South 15 mph 18 mph 51% 0 in 621.00 W/m2
11:19 53.3 °F 34.6 °F 29.93 in SSW 14 mph 20 mph 49% 0 in 441.00 W/m2
11:24 53 °F 34.8 °F 29.93 in SSW 13 mph 22 mph 50% 0 in 671.00 W/m2
11:29 53.2 °F 36 °F 29.93 in SSE 18 mph 22 mph 52% 0 in 489.00 W/m2
11:34 53.6 °F 35.9 °F 29.92 in South 10 mph 23 mph 51% 0 in 490.00 W/m2
11:39 53.8 °F 36.6 °F 29.92 in SW 12 mph 23 mph 52% 0 in 476.00 W/m2
11:44 54.1 °F 36.4 °F 29.92 in SSW 15 mph 19 mph 51% 0 in 592.00 W/m2
11:49 54.4 °F 36.6 °F 29.91 in South 11 mph 19 mph 51% 0 in 480.00 W/m2
11:54 54.8 °F 36 °F 29.91 in SSW 12 mph 20 mph 49% 0 in 385.00 W/m2
11:59 55.4 °F 37.6 °F 29.91 in SSW 10 mph 20 mph 51% 0 in 868.00 W/m2
12:04 56.8 °F 38.3 °F 29.91 in SW 8 mph 20 mph 50% 0 in 953.00 W/m2
12:09 57.3 °F 37.8 °F 29.90 in South 8 mph 20 mph 48% 0 in 722.00 W/m2
12:14 57.9 °F 38.8 °F 29.90 in SW 11 mph 20 mph 49% 0 in 981.00 W/m2
12:19 58.9 °F 38.7 °F 29.90 in SW 6 mph 20 mph 47% 0 in 884.00 W/m2
12:24 59.4 °F 38.6 °F 29.90 in SW 15 mph 20 mph 46% 0 in 977.00 W/m2
12:29 59.6 °F 38.8 °F 29.89 in SW 9 mph 19 mph 46% 0 in 1021.00 W/m2
12:34 59.9 °F 37.9 °F 29.89 in SSW 10 mph 20 mph 44% 0 in 679.00 W/m2
12:39 59.9 °F 37.3 °F 29.89 in WSW 18 mph 23 mph 43% 0 in 404.00 W/m2
12:44 60.3 °F 37.1 °F 29.89 in SW 17 mph 23 mph 42% 0 in 1225.00 W/m2
12:49 60.2 °F 35.8 °F 29.88 in WSW 11 mph 26 mph 40% 0 in 422.00 W/m2
12:54 59.6 °F 33.9 °F 29.88 in SW 12 mph 26 mph 38% 0 in 431.00 W/m2
12:59 59.4 °F 34.4 °F 29.88 in WSW 11 mph 26 mph 39% 0 in 515.00 W/m2
13:04 60.3 °F 33.9 °F 29.88 in SW 12 mph 26 mph 37% 0 in 480.00 W/m2
13:09 60.2 °F 34.5 °F 29.87 in SW 11 mph 21 mph 38% 0 in 529.00 W/m2
13:14 60.2 °F 35.1 °F 29.87 in SSW 16 mph 21 mph 39% 0 in 397.00 W/m2
13:19 60.4 °F 34 °F 29.86 in SW 25 mph 25 mph 37% 0 in 446.00 W/m2
13:24 60.3 °F 33.9 °F 29.86 in SW 13 mph 25 mph 37% 0 in 555.00 W/m2
13:29 60.9 °F 35.1 °F 29.86 in SSW 16 mph 24 mph 38% 0 in 316.00 W/m2
13:34 60.4 °F 33.3 °F 29.86 in SW 10 mph 22 mph 36% 0 in 281.00 W/m2
13:39 59.9 °F 32.2 °F 29.86 in SSW 14 mph 22 mph 35% 0 in 357.00 W/m2
13:44 60 °F 32.9 °F 29.85 in SW 18 mph 21 mph 36% 0 in 348.00 W/m2
13:49 60.2 °F 33.1 °F 29.85 in SW 14 mph 20 mph 36% 0 in 336.00 W/m2
13:54 60.9 °F 34.4 °F 29.85 in WSW 14 mph 24 mph 37% 0 in 1123.00 W/m2
13:59 61.2 °F 32.6 °F 29.84 in SSW 18 mph 26 mph 34% 0 in 515.00 W/m2
14:04 61 °F 32.4 °F 29.84 in South 12 mph 26 mph 34% 0 in 302.00 W/m2
14:09 60.4 °F 31.9 °F 29.84 in SSW 7 mph 26 mph 34% 0 in 209.00 W/m2
14:14 60.1 °F 31.6 °F 29.84 in SSW 10 mph 26 mph 34% 0 in 234.00 W/m2
14:19 60 °F 32.9 °F 29.84 in South 13 mph 21 mph 36% 0 in 264.00 W/m2
14:24 60.3 °F 33.2 °F 29.84 in SSW 9 mph 27 mph 36% 0 in 292.00 W/m2
14:29 60.5 °F 32.7 °F 29.84 in SSW 14 mph 27 mph 35% 0 in 338.00 W/m2
14:34 60.8 °F 33.7 °F 29.84 in SSW 9 mph 24 mph 36% 0 in 373.00 W/m2
14:39 61.1 °F 31.8 °F 29.83 in SSW 14 mph 24 mph 33% 0 in 385.00 W/m2
14:44 61.2 °F 33.3 °F 29.83 in SW 15 mph 24 mph 35% 0 in 332.00 W/m2
14:49 61.1 °F 33.9 °F 29.83 in North 12 mph 25 mph 36% 0 in 355.00 W/m2
14:54 62.1 °F 34.8 °F 29.83 in SSW 11 mph 25 mph 36% 0 in 984.00 W/m2
14:59 63.2 °F 35.8 °F 29.82 in SSW 8 mph 24 mph 36% 0 in 870.00 W/m2
15:04 62.7 °F 32.4 °F 29.82 in SSW 11 mph 25 mph 32% 0 in 258.00 W/m2
15:09 62.2 °F 34.2 °F 29.82 in SSW 14 mph 25 mph 35% 0 in 320.00 W/m2
15:14 62.6 °F 34.5 °F 29.82 in SSW 17 mph 25 mph 35% 0 in 404.00 W/m2
15:19 63.9 °F 35.7 °F 29.81 in SSW 17 mph 25 mph 35% 0 in 893.00 W/m2
15:24 63.4 °F 33 °F 29.81 in SW 18 mph 27 mph 32% 0 in 401.00 W/m2
15:29 62.6 °F 33.1 °F 29.81 in South 15 mph 27 mph 33% 0 in 536.00 W/m2
15:34 63.3 °F 34.4 °F 29.81 in South 19 mph 27 mph 34% 0 in 1021.00 W/m2
15:39 64.4 °F 34.6 °F 29.80 in SSW 20 mph 26 mph 33% 0 in 1009.00 W/m2
15:44 64.4 °F 33.9 °F 29.80 in SW 14 mph 26 mph 32% 0 in 439.00 W/m2
15:49 63.7 °F 38.3 °F 29.80 in SSW 7 mph 24 mph 39% 0 in 622.00 W/m2
15:54 64.2 °F 35.2 °F 29.80 in SSW 16 mph 29 mph 34% 0 in 686.00 W/m2
15:59 64.1 °F 34.4 °F 29.80 in South 16 mph 29 mph 33% 0 in 538.00 W/m2
16:04 63.6 °F 34.7 °F 29.80 in South 23 mph 29 mph 34% 0 in 554.00 W/m2
16:09 63.6 °F 32.4 °F 29.79 in SW 14 mph 29 mph 31% 0 in 715.00 W/m2
16:14 62.9 °F 33.3 °F 29.79 in SW 11 mph 23 mph 33% 0 in 232.00 W/m2
16:19 62.2 °F 32.7 °F 29.79 in SW 18 mph 24 mph 33% 0 in 174.00 W/m2
16:24 61.9 °F 33.2 °F 29.79 in SSW 18 mph 24 mph 34% 0 in 336.00 W/m2
16:29 62.4 °F 32.9 °F 29.79 in SW 19 mph 30 mph 33% 0 in 664.00 W/m2
16:34 63 °F 33.4 °F 29.78 in SSW 14 mph 30 mph 33% 0 in 584.00 W/m2
16:39 63.6 °F 34.7 °F 29.78 in South 10 mph 29 mph 34% 0 in 478.00 W/m2
16:44 63.5 °F 33.9 °F 29.78 in South 16 mph 29 mph 33% 0 in 251.00 W/m2
16:49 62.7 °F 33.9 °F 29.78 in SSW 10 mph 26 mph 34% 0 in 144.00 W/m2
16:54 62.1 °F 31.9 °F 29.78 in SW 16 mph 22 mph 32% 0 in 135.00 W/m2
16:59 61.6 °F 31.4 °F 29.78 in SW 10 mph 28 mph 32% 0 in 236.00 W/m2
17:04 61.8 °F 32.4 °F 29.78 in SSW 8 mph 28 mph 33% 0 in 287.00 W/m2
17:09 62.1 °F 32.6 °F 29.77 in SSE 10 mph 28 mph 33% 0 in 193.00 W/m2
17:14 62.2 °F 32.7 °F 29.77 in WSW 23 mph 29 mph 33% 0 in 172.00 W/m2
17:19 61.9 °F 30.9 °F 29.77 in SW 7 mph 29 mph 31% 0 in 179.00 W/m2
17:24 61.8 °F 32.4 °F 29.77 in SSW 10 mph 28 mph 33% 0 in 192.00 W/m2
17:29 61.8 °F 31.6 °F 29.77 in SSW 13 mph 28 mph 32% 0 in 172.00 W/m2
17:34 61.9 °F 31.7 °F 29.76 in SSW 12 mph 19 mph 32% 0 in 142.00 W/m2
17:39 61.8 °F 32.4 °F 29.76 in SSW 24 mph 30 mph 33% 0 in 223.00 W/m2
17:44 61.7 °F 33 °F 29.76 in SSW 13 mph 30 mph 34% 0 in 311.00 W/m2
17:49 61.9 °F 33.9 °F 29.76 in SSW 19 mph 30 mph 35% 0 in 366.00 W/m2
17:54 62 °F 34.7 °F 29.76 in South 17 mph 30 mph 36% 0 in 204.00 W/m2
17:59 61.6 °F 33.7 °F 29.76 in South 7 mph 30 mph 35% 0 in 195.00 W/m2
18:04 61.7 °F 34.5 °F 29.75 in SSW 12 mph 24 mph 36% 0 in 232.00 W/m2
18:09 62.2 °F 34.9 °F 29.75 in SSW 17 mph 24 mph 36% 0 in 529.00 W/m2
18:14 63.1 °F 33.5 °F 29.75 in South 12 mph 21 mph 33% 0 in 401.00 W/m2
18:19 63.7 °F 33.3 °F 29.75 in South 19 mph 25 mph 32% 0 in 448.00 W/m2
18:24 63.9 °F 33.4 °F 29.75 in SSW 26 mph 28 mph 32% 0 in 431.00 W/m2
18:29 63.4 °F 33 °F 29.75 in SSW 19 mph 30 mph 32% 0 in 413.00 W/m2
18:34 63.2 °F 33.6 °F 29.75 in South 21 mph 30 mph 33% 0 in 399.00 W/m2
18:39 63.3 °F 34.4 °F 29.75 in SSE 20 mph 30 mph 34% 0 in 373.00 W/m2
18:44 63.4 °F 33.8 °F 29.75 in SSW 17 mph 30 mph 33% 0 in 353.00 W/m2
18:49 63.4 °F 33.8 °F 29.74 in SSE 12 mph 26 mph 33% 0 in 338.00 W/m2
18:54 63.1 °F 33.5 °F 29.74 in South 16 mph 26 mph 33% 0 in 320.00 W/m2
18:59 63.1 °F 33.5 °F 29.74 in South 18 mph 24 mph 33% 0 in 304.00 W/m2
19:04 63 °F 34.2 °F 29.74 in SSW 17 mph 25 mph 34% 0 in 292.00 W/m2
19:09 63.1 °F 33.5 °F 29.73 in SSW 18 mph 25 mph 33% 0 in 274.00 W/m2
19:14 62.9 °F 32.6 °F 29.73 in SSW 15 mph 24 mph 32% 0 in 262.00 W/m2
19:19 62.9 °F 33.3 °F 29.73 in SSW 11 mph 25 mph 33% 0 in 241.00 W/m2
19:24 62.9 °F 33.3 °F 29.73 in South 11 mph 25 mph 33% 0 in 229.00 W/m2
19:29 62.8 °F 33.2 °F 29.73 in South 13 mph 21 mph 33% 0 in 211.00 W/m2
19:34 62.6 °F 34.5 °F 29.73 in SSW 9 mph 24 mph 35% 0 in 192.00 W/m2
19:39 62.5 °F 33 °F 29.72 in South 10 mph 24 mph 33% 0 in 174.00 W/m2
19:44 62.2 °F 32.7 °F 29.72 in South 14 mph 26 mph 33% 0 in 151.00 W/m2
19:49 62 °F 31.8 °F 29.72 in South 14 mph 26 mph 32% 0 in 134.00 W/m2
19:54 61.8 °F 32.4 °F 29.72 in South 19 mph 24 mph 33% 0 in 123.00 W/m2
19:59 61.6 °F 32.2 °F 29.72 in South 13 mph 23 mph 33% 0 in 107.00 W/m2
20:04 61.5 °F 32.1 °F 29.72 in South 12 mph 23 mph 33% 0 in 93.00 W/m2
20:09 61.3 °F 31.9 °F 29.71 in South 16 mph 21 mph 33% 0 in 81.00 W/m2
20:14 61.1 °F 32.5 °F 29.71 in South 11 mph 21 mph 34% 0 in 69.00 W/m2
20:19 60.7 °F 32.1 °F 29.71 in South 16 mph 20 mph 34% 0 in 56.00 W/m2
20:24 60.4 °F 31.9 °F 29.71 in SSE 18 mph 22 mph 34% 0 in 47.00 W/m2
20:29 60.1 °F 32.3 °F 29.71 in South 20 mph 22 mph 35% 0 in 35.00 W/m2
20:34 59.6 °F 31.9 °F 29.71 in South 11 mph 20 mph 35% 0 in 23.00 W/m2
20:39 59.2 °F 31.5 °F 29.71 in South 14 mph 20 mph 35% 0 in 19.00 W/m2
20:44 58.8 °F 31.9 °F 29.71 in South 14 mph 20 mph 36% 0 in 14.00 W/m2
20:49 58.5 °F 31.6 °F 29.71 in South 13 mph 18 mph 36% 0 in 11.00 W/m2
20:54 58.4 °F 31.5 °F 29.70 in South 14 mph 21 mph 36% 0 in 7.00 W/m2
20:59 57.9 °F 31.1 °F 29.70 in SSW 12 mph 21 mph 36% 0 in 5.00 W/m2
21:04 57.7 °F 30.9 °F 29.70 in South 13 mph 19 mph 36% 0 in 0.00 W/m2
21:09 57.4 °F 31.3 °F 29.70 in South 11 mph 18 mph 37% 0 in 0.00 W/m2
21:14 57.2 °F 31.1 °F 29.70 in South 9 mph 18 mph 37% 0 in 0.00 W/m2
21:19 57.1 °F 31 °F 29.70 in South 13 mph 17 mph 37% 0 in 0.00 W/m2
21:24 56.9 °F 30.9 °F 29.70 in SSE 10 mph 17 mph 37% 0 in 0.00 W/m2
21:29 56.6 °F 31.3 °F 29.70 in South 9 mph 16 mph 38% 0 in 0.00 W/m2
21:34 56.4 °F 31.7 °F 29.70 in SSW 8 mph 16 mph 39% 0 in 0.00 W/m2
21:39 56.2 °F 31.5 °F 29.70 in SSE 8 mph 17 mph 39% 0 in 0.00 W/m2
21:44 55.9 °F 31.3 °F 29.70 in South 11 mph 17 mph 39% 0 in 0.00 W/m2
21:49 55.6 °F 31.6 °F 29.70 in SSE 7 mph 17 mph 40% 0 in 0.00 W/m2
21:54 55.4 °F 32.1 °F 29.70 in SSE 9 mph 17 mph 41% 0 in 0.00 W/m2
21:59 55.2 °F 31.9 °F 29.70 in South 9 mph 16 mph 41% 0 in 0.00 W/m2
22:04 54.9 °F 32.2 °F 29.70 in SSE 9 mph 16 mph 42% 0 in 0.00 W/m2
22:09 54.5 °F 32.4 °F 29.70 in South 9 mph 14 mph 43% 0 in 0.00 W/m2
22:14 54.2 °F 32.2 °F 29.70 in SSE 11 mph 14 mph 43% 0 in 0.00 W/m2
22:19 54 °F 32.6 °F 29.70 in SSE 10 mph 12 mph 44% 0 in 0.00 W/m2
22:24 53.4 °F 32.6 °F 29.70 in SSE 7 mph 12 mph 45% 0 in 0.00 W/m2
22:29 52.5 °F 32.3 °F 29.70 in ESE 12 mph 12 mph 46% 0 in 0.00 W/m2
22:34 51.8 °F 32.7 °F 29.69 in SSE 12 mph 14 mph 48% 0 in 0.00 W/m2
22:39 51.7 °F 32.6 °F 29.69 in SSE 8 mph 14 mph 48% 0 in 0.00 W/m2
22:44 51.2 °F 32.7 °F 29.69 in SE 10 mph 14 mph 49% 0 in 0.00 W/m2
22:49 50.4 °F 32.9 °F 29.69 in SE 8 mph 14 mph 51% 0 in 0.00 W/m2
22:54 50.1 °F 33.1 °F 29.69 in SE 11 mph 15 mph 52% 0 in 0.00 W/m2
22:59 50 °F 33.5 °F 29.69 in SE 10 mph 15 mph 53% 0 in 0.00 W/m2
23:04 49.8 °F 33.8 °F 29.69 in SE 11 mph 15 mph 54% 0 in 0.00 W/m2
23:09 49.5 °F 34 °F 29.69 in SSE 9 mph 15 mph 55% 0 in 0.00 W/m2
23:14 49.3 °F 34.3 °F 29.69 in SE 10 mph 14 mph 56% 0 in 0.00 W/m2
23:19 49.2 °F 34.6 °F 29.69 in SSE 11 mph 15 mph 57% 0 in 0.00 W/m2
23:24 49.6 °F 35 °F 29.68 in SSE 9 mph 16 mph 57% 0 in 0.00 W/m2
23:29 50.5 °F 35.4 °F 29.68 in SSE 12 mph 17 mph 56% 0 in 0.00 W/m2
23:34 51.5 °F 35.9 °F 29.68 in SSE 15 mph 19 mph 55% 0 in 0.00 W/m2
23:39 51.4 °F 35.8 °F 29.68 in SSE 9 mph 19 mph 55% 0 in 0.00 W/m2
23:44 51.3 °F 35.7 °F 29.68 in South 8 mph 18 mph 55% 0 in 0.00 W/m2
23:49 51.3 °F 35.7 °F 29.68 in SSE 13 mph 19 mph 55% 0 in 0.00 W/m2
23:54 51.5 °F 35.9 °F 29.68 in SSE 12 mph 19 mph 55% 0 in 0.00 W/m2
23:59 51.2 °F 35.6 °F 29.67 in SSE 9 mph 18 mph 55% 0 in 0.00 W/m2
Bismarck, North Dakota, USA
Compliments of Weather Underground - 4 mb